• Join FlightAware (Why Join?)
  • Login
  • US Flag 
03:22PM EST


 

Airport Tracker/Info


-or-


 

Live Flight TrackerFlight Track Log ✈ FDX77 ✈ 01-May-2013 ✈ PHNL - YSSY / SYD

Flight Track Log - Related Links

Times and Time Zones

All times are in EDT time to prevent confusion due to time zone crossing. See the FDX77 flight status page for this flight to view local times or setup timezone preferences in your user account.

Time Position Orientation Groundspeed Altitude Reporting Facility
EDT Latitude Longitude Course Direction KTS MPH feet Rate Location/Type
03:44PM 21.3000 -157.8833 163° South 190 219 900  Level Honolulu Center
03:45PM 21.2500 -157.8667 163° South 200 230 2,800 1,500 Climbing Honolulu Center
03:46PM 21.2000 -157.9167 223° Southwest 260 299 3,900 1,560 Climbing Honolulu Center
03:52PM 20.8950 -158.3030 223° Southwest 401 461 12,700 1,560 Climbing FlightAware
03:53PM 20.8120 -158.3890 224° Southwest 446 513 13,600 1,200 Climbing FlightAware
03:53PM 20.7640 -158.4380 224° Southwest 458 527 14,500 1,500 Climbing FlightAware
03:54PM 20.6820 -158.5220 224° Southwest 453 521 15,900 1,980 Climbing FlightAware
03:55PM 20.6020 -158.6040 224° Southwest 463 533 18,000 1,620 Climbing FlightAware
03:56PM 20.5210 -158.6870 224° Southwest 471 542 18,600 1,560 Climbing FlightAware
03:56PM 20.4780 -158.7320 224° Southwest 476 548 20,100 1,920 Climbing FlightAware
03:57PM 20.3970 -158.8150 224° Southwest 485 558 21,200 1,260 Climbing FlightAware
03:58PM 20.3050 -158.9090 224° Southwest 495 570 22,400 1,320 Climbing FlightAware
03:59PM 20.2120 -159.0040 224° Southwest 496 571 23,700 960 Climbing FlightAware
03:59PM 20.1490 -159.0680 224° Southwest 504 580 23,900 1,440 Climbing FlightAware
04:00PM 20.0690 -159.1490 224° Southwest 499 574 25,800 2,220 Climbing FlightAware
04:01PM 20.0050 -159.2140 224° Southwest 485 558 27,300 1,920 Climbing FlightAware
04:02PM 19.9320 -159.2880 224° Southwest 482 555 28,400 1,440 Climbing FlightAware
04:02PM 19.8730 -159.3470 223° Southwest 482 555 29,100 1,020 Climbing FlightAware
04:03PM 19.7970 -159.4250 224° Southwest 482 555 30,000 600 Climbing FlightAware
04:04PM 19.7380 -159.4860 224° Southwest 483 556 30,000  Level FlightAware
04:04PM 19.6620 -159.5610 223° Southwest 479 551 30,000  Level FlightAware
04:05PM 19.5990 -159.6260 224° Southwest 478 550 30,000  Level FlightAware
04:06PM 19.5340 -159.6920 224° Southwest 478 550 30,000  Level FlightAware
04:07PM 19.4800 -159.7470 224° Southwest 478 550 30,000  Level FlightAware
04:07PM 19.4260 -159.8030 224° Southwest 478 550 30,000  Level FlightAware
04:08PM 19.2850 -159.9400 223° Southwest 30,000  Level FlightAware
04:09PM 19.1940 -160.0340 224° Southwest 477 549 30,000  Level FlightAware
04:10PM 19.1190 -160.1070 223° Southwest 475 547 30,000  Level FlightAware
04:11PM 19.0520 -160.1740 223° Southwest 475 547 30,000  Level FlightAware
04:11PM 19.0040 -160.2230 224° Southwest 475 547 30,000  Level FlightAware
04:12PM 18.9350 -160.2900 223° Southwest 476 548 30,000  Level FlightAware
04:13PM 18.8700 -160.3570 224° Southwest 476 548 30,000  Level FlightAware
04:14PM 18.7940 -160.4330 223° Southwest 476 548 30,000  Level FlightAware
04:14PM 18.7360 -160.4900 223° Southwest 476 548 30,000  Level FlightAware
04:15PM 18.6690 -160.5590 224° Southwest 476 548 30,000  Level FlightAware
04:16PM 18.6150 -160.6140 224° Southwest 476 548 30,000  Level FlightAware
04:16PM 18.5610 -160.6690 224° Southwest 476 548 30,000  Level FlightAware
04:17PM 18.5070 -160.7230 223° Southwest 476 548 30,000  Level FlightAware
04:18PM 18.4400 -160.7920 224° Southwest 476 548 30,000  Level FlightAware
04:18PM 18.3860 -160.8470 224° Southwest 476 548 30,000  Level FlightAware
04:19PM 18.4000 -160.8167 226° Southwest 484 557 30,000  Level Oakland Oceanic (ODAPS)
04:19PM 18.2667 -160.9667 226° Southwest 483 556 30,000  Level Oakland Oceanic (ODAPS)
04:19PM 18.3320 -160.9020 224° Southwest 476 548 30,000  Level FlightAware
04:20PM 18.2780 -160.9560 224° Southwest 476 548 30,000  Level FlightAware
04:20PM 18.2240 -161.0110 224° Southwest 476 548 30,000  Level FlightAware
04:21PM 18.1710 -161.0660 225° Southwest 476 548 30,000  Level FlightAware
04:22PM 18.1030 -161.1340 224° Southwest 476 548 30,000  Level FlightAware
04:23PM 18.0490 -161.1890 224° Southwest 476 548 30,000  Level FlightAware
04:23PM 17.9960 -161.2440 225° Southwest 476 548 30,000  Level FlightAware
04:25PM 17.7136 -161.5750 226° Southwest 483 556 30,000  Level FlightAware Transoceanic
04:26PM 17.6213 -161.6761 226° Southwest 483 556 30,000  Level FlightAware Transoceanic
04:27PM 17.5289 -161.7770 226° Southwest 483 556 30,000  Level FlightAware Transoceanic
04:28PM 17.4364 -161.8778 226° Southwest 483 556 30,000  Level FlightAware Transoceanic
04:29PM 17.3439 -161.9785 226° Southwest 483 556 30,000  Level FlightAware Transoceanic
04:30PM 17.2513 -162.0791 226° Southwest 483 556 30,000  Level FlightAware Transoceanic
04:31PM 17.1587 -162.1796 226° Southwest 483 556 30,000  Level FlightAware Transoceanic
04:32PM 17.0661 -162.2800 226° Southwest 483 556 30,000  Level FlightAware Transoceanic
04:33PM 16.9734 -162.3804 226° Southwest 483 556 30,000  Level FlightAware Transoceanic
04:33PM 17.0667 -162.2833 226° Southwest 483 556 30,000  Level Oakland Oceanic (ODAPS)
04:33PM 17.0000 -162.3500 226° Southwest 484 557 30,000  Level Oakland Oceanic (ODAPS)
04:34PM 16.8806 -162.4806 226° Southwest 483 556 30,000  Level FlightAware Transoceanic
04:35PM 16.7878 -162.5807 226° Southwest 483 556 30,000  Level FlightAware Transoceanic
04:36PM 16.6949 -162.6807 226° Southwest 483 556 30,000  Level FlightAware Transoceanic
04:37PM 16.6020 -162.7806 226° Southwest 483 556 30,000  Level FlightAware Transoceanic
04:38PM 16.5091 -162.8805 226° Southwest 483 556 30,000  Level FlightAware Transoceanic
04:39PM 16.4382 -162.9552 226° Southwest 484 557 30,000  Level FlightAware Transoceanic
04:40PM 16.3444 -163.0557 226° Southwest 484 557 30,000  Level FlightAware Transoceanic
04:41PM 16.2506 -163.1561 226° Southwest 484 557 30,000  Level FlightAware Transoceanic
04:42PM 16.1567 -163.2565 226° Southwest 484 557 30,000  Level FlightAware Transoceanic
04:43PM 16.0628 -163.3567 226° Southwest 484 557 30,000  Level FlightAware Transoceanic
04:44PM 15.9688 -163.4568 226° Southwest 484 557 30,000  Level FlightAware Transoceanic
04:45PM 15.8748 -163.5569 226° Southwest 484 557 30,000  Level FlightAware Transoceanic
04:46PM 15.7807 -163.6568 226° Southwest 484 557 30,000  Level FlightAware Transoceanic
04:47PM 15.6865 -163.7567 226° Southwest 484 557 30,000  Level FlightAware Transoceanic
04:47PM 15.7167 -163.7333 225° Southwest 483 556 30,000  Level Oakland Oceanic (ODAPS)
04:48PM 15.5924 -163.8564 226° Southwest 484 557 30,000  Level FlightAware Transoceanic
04:49PM 15.4982 -163.9561 226° Southwest 484 557 30,000  Level FlightAware Transoceanic
04:50PM 15.4039 -164.0557 226° Southwest 484 557 30,000  Level FlightAware Transoceanic
04:51PM 15.3096 -164.1552 225° Southwest 484 557 30,000  Level FlightAware Transoceanic
04:52PM 15.2153 -164.2546 225° Southwest 484 557 30,000  Level FlightAware Transoceanic
04:53PM 15.1424 -164.3373 225° Southwest 483 556 30,000  Level FlightAware Transoceanic
04:54PM 15.0466 -164.4377 225° Southwest 483 556 30,000  Level FlightAware Transoceanic
04:55PM 14.9507 -164.5379 225° Southwest 483 556 30,000  Level FlightAware Transoceanic
04:56PM 14.8547 -164.6381 225° Southwest 483 556 30,000  Level FlightAware Transoceanic
04:57PM 14.7587 -164.7382 225° Southwest 483 556 30,000  Level FlightAware Transoceanic
04:58PM 14.6627 -164.8382 225° Southwest 483 556 30,000  Level FlightAware Transoceanic
04:59PM 14.5666 -164.9381 225° Southwest 483 556 30,000  Level FlightAware Transoceanic
05:00PM 14.4705 -165.0379 225° Southwest 483 556 30,000  Level FlightAware Transoceanic
05:01PM 14.3743 -165.1376 225° Southwest 483 556 30,000  Level FlightAware Transoceanic
05:01PM 14.4000 -165.1000 226° Southwest 492 566 30,000  Level Oakland Oceanic (ODAPS)
05:02PM 14.2781 -165.2372 225° Southwest 483 556 30,000  Level FlightAware Transoceanic
05:03PM 14.1819 -165.3368 225° Southwest 483 556 30,000  Level FlightAware Transoceanic
05:04PM 14.0856 -165.4363 225° Southwest 483 556 30,000  Level FlightAware Transoceanic
05:05PM 13.9892 -165.5357 225° Southwest 483 556 30,000  Level FlightAware Transoceanic
05:06PM 13.8929 -165.6350 225° Southwest 483 556 30,000  Level FlightAware Transoceanic
05:07PM 13.8001 -165.7288 225° Southwest 492 566 30,000  Level FlightAware Transoceanic
05:08PM 13.7000 -165.8333 225° Southwest 492 566 30,000  Level FlightAware Transoceanic
05:08PM 13.7000 -165.8333 225° Southwest 484 557 30,000  Level Oakland Oceanic (ODAPS)
05:09PM 13.6048 -165.9314 225° Southwest 492 566 30,000  Level FlightAware Transoceanic
05:10PM 13.5096 -166.0293 225° Southwest 492 566 30,000  Level FlightAware Transoceanic
05:11PM 13.4143 -166.1272 225° Southwest 492 566 30,000  Level FlightAware Transoceanic
05:12PM 13.3191 -166.2250 225° Southwest 492 566 30,000  Level FlightAware Transoceanic
05:13PM 13.2237 -166.3227 225° Southwest 492 566 30,000  Level FlightAware Transoceanic
05:14PM 13.1284 -166.4203 225° Southwest 484 557 30,000  Level FlightAware Transoceanic
05:14PM 13.0833 -166.4667 225° Southwest 484 557 30,000  Level Oakland Oceanic (ODAPS)
05:15PM 13.0330 -166.5179 225° Southwest 484 557 30,000  Level FlightAware Transoceanic
05:16PM 12.9375 -166.6154 225° Southwest 484 557 30,000  Level FlightAware Transoceanic
05:17PM 12.8420 -166.7128 225° Southwest 484 557 30,000  Level FlightAware Transoceanic
05:18PM 12.7465 -166.8102 225° Southwest 484 557 30,000  Level FlightAware Transoceanic
05:19PM 12.6510 -166.9074 225° Southwest 484 557 30,000  Level FlightAware Transoceanic
05:20PM 12.5554 -167.0046 225° Southwest 484 557 30,000  Level FlightAware Transoceanic
05:21PM 12.5032 -167.0579 225° Southwest 484 557 30,000  Level FlightAware Transoceanic
05:22PM 12.4064 -167.1561 225° Southwest 484 557 30,000  Level FlightAware Transoceanic
05:23PM 12.3096 -167.2543 225° Southwest 484 557 30,000  Level FlightAware Transoceanic
05:24PM 12.2127 -167.3525 225° Southwest 484 557 30,000  Level FlightAware Transoceanic
05:25PM 12.1158 -167.4505 225° Southwest 484 557 30,000  Level FlightAware Transoceanic
05:26PM 12.0188 -167.5485 225° Southwest 484 557 30,000  Level FlightAware Transoceanic
05:27PM 11.9218 -167.6464 225° Southwest 484 557 30,000  Level FlightAware Transoceanic
05:28PM 11.8248 -167.7442 225° Southwest 484 557 30,000 1,080 Level FlightAware Transoceanic
05:28PM 11.8167 -167.7667 224° Southwest 470 541 32,000  Climbing Oakland Oceanic (ODAPS)
05:29PM 11.7277 -167.8420 225° Southwest 484 557 30,000 -1,680 Descending FlightAware Transoceanic
05:30PM 11.6307 -167.9397 225° Southwest 484 557 30,000  Level FlightAware Transoceanic
05:31PM 11.5336 -168.0374 225° Southwest 484 557 30,000  Level FlightAware Transoceanic
05:32PM 11.4364 -168.1349 225° Southwest 484 557 30,000  Level FlightAware Transoceanic
05:33PM 11.3392 -168.2324 225° Southwest 484 557 30,000  Level FlightAware Transoceanic
05:34PM 11.2420 -168.3299 224° Southwest 484 557 30,000 960 Level FlightAware Transoceanic
05:35PM 11.2542 -168.3291 224° Southwest 470 541 32,000 960 Climbing FlightAware Transoceanic
05:36PM 11.1604 -168.4226 224° Southwest 470 541 32,000  Level FlightAware Transoceanic
05:37PM 11.0665 -168.5160 224° Southwest 470 541 32,000  Level FlightAware Transoceanic
05:38PM 10.9726 -168.6094 224° Southwest 470 541 32,000  Level FlightAware Transoceanic
05:39PM 10.8787 -168.7027 224° Southwest 470 541 32,000  Level FlightAware Transoceanic
05:40PM 10.7847 -168.7960 224° Southwest 470 541 32,000  Level FlightAware Transoceanic
05:41PM 10.6907 -168.8892 224° Southwest 470 541 32,000  Level FlightAware Transoceanic
05:42PM 10.5967 -168.9824 224° Southwest 470 541 32,000  Level FlightAware Transoceanic
05:42PM 10.5167 -169.0500 224° Southwest 469 540 32,000  Level Oakland Oceanic (ODAPS)
05:43PM 10.5027 -169.0755 224° Southwest 470 541 32,000  Level FlightAware Transoceanic
05:44PM 10.4086 -169.1685 224° Southwest 470 541 32,000  Level FlightAware Transoceanic
05:45PM 10.3145 -169.2615 224° Southwest 470 541 32,000  Level FlightAware Transoceanic
05:46PM 10.2204 -169.3545 224° Southwest 470 541 32,000  Level FlightAware Transoceanic
05:47PM 10.1262 -169.4473 224° Southwest 470 541 32,000  Level FlightAware Transoceanic
05:48PM 10.0420 -169.5222 224° Southwest 469 540 32,000  Level FlightAware Transoceanic
05:49PM 9.9469 -169.6165 224° Southwest 469 540 32,000  Level FlightAware Transoceanic
05:50PM 9.8519 -169.7107 224° Southwest 469 540 32,000  Level FlightAware Transoceanic
05:51PM 9.7568 -169.8049 224° Southwest 469 540 32,000  Level FlightAware Transoceanic
05:52PM 9.6617 -169.8990 224° Southwest 469 540 32,000  Level FlightAware Transoceanic
05:53PM 9.5666 -169.9930 224° Southwest 469 540 32,000  Level FlightAware Transoceanic
05:54PM 9.4714 -170.0870 224° Southwest 469 540 32,000  Level FlightAware Transoceanic
05:55PM 9.3763 -170.1810 224° Southwest 469 540 32,000  Level FlightAware Transoceanic
05:56PM 9.2810 -170.2749 224° Southwest 469 540 32,000  Level FlightAware Transoceanic
05:56PM 9.2333 -170.3333 223° Southwest 476 548 32,000  Level Oakland Oceanic (ODAPS)
05:57PM 9.1858 -170.3687 224° Southwest 469 540 32,000  Level FlightAware Transoceanic
05:58PM 9.0906 -170.4626 224° Southwest 469 540 32,000  Level FlightAware Transoceanic
05:59PM 8.9953 -170.5563 224° Southwest 469 540 32,000  Level FlightAware Transoceanic
06:00PM 8.9000 -170.6500 224° Southwest 469 540 32,000  Level FlightAware Transoceanic
06:00PM 8.9000 -170.6500 224° Southwest 481 554 32,000  Level Oakland Oceanic (ODAPS)
06:01PM 8.8028 -170.7450 224° Southwest 469 540 32,000  Level FlightAware Transoceanic
06:02PM 8.7056 -170.8400 224° Southwest 476 548 32,000  Level FlightAware Transoceanic
06:03PM 8.6084 -170.9348 224° Southwest 476 548 32,000  Level FlightAware Transoceanic
06:04PM 8.5111 -171.0297 224° Southwest 476 548 32,000  Level FlightAware Transoceanic
06:05PM 8.4138 -171.1245 224° Southwest 476 548 32,000  Level FlightAware Transoceanic
06:06PM 8.3165 -171.2193 224° Southwest 481 554 32,000  Level FlightAware Transoceanic
06:07PM 8.2192 -171.3140 224° Southwest 481 554 32,000  Level FlightAware Transoceanic
06:08PM 8.1218 -171.4086 224° Southwest 481 554 32,000  Level FlightAware Transoceanic
06:09PM 8.0245 -171.5033 224° Southwest 481 554 32,000  Level FlightAware Transoceanic
06:10PM 7.9271 -171.5978 224° Southwest 481 554 32,000  Level FlightAware Transoceanic
06:10PM 7.9167 -171.6000 224° Southwest 482 555 32,000  Level Oakland Oceanic (ODAPS)
06:11PM 7.8296 -171.6924 224° Southwest 481 554 32,000  Level FlightAware Transoceanic
06:12PM 7.7322 -171.7868 224° Southwest 481 554 32,000  Level FlightAware Transoceanic
06:13PM 7.6347 -171.8813 224° Southwest 481 554 32,000  Level FlightAware Transoceanic
06:14PM 7.5373 -171.9757 224° Southwest 481 554 32,000  Level FlightAware Transoceanic
06:15PM 7.4398 -172.0700 224° Southwest 481 554 32,000  Level FlightAware Transoceanic
06:16PM 7.3334 -172.1662 224° Southwest 482 555 32,000  Level FlightAware Transoceanic
06:17PM 7.2361 -172.2604 224° Southwest 482 555 32,000  Level FlightAware Transoceanic
06:18PM 7.1388 -172.3546 224° Southwest 482 555 32,000  Level FlightAware Transoceanic
06:19PM 7.0415 -172.4487 224° Southwest 482 555 32,000  Level FlightAware Transoceanic
06:20PM 6.9442 -172.5428 224° Southwest 482 555 32,000  Level FlightAware Transoceanic
06:21PM 6.8468 -172.6368 224° Southwest 482 555 32,000  Level FlightAware Transoceanic
06:22PM 6.7495 -172.7309 224° Southwest 482 555 32,000  Level FlightAware Transoceanic
06:23PM 6.6521 -172.8248 224° Southwest 482 555 32,000  Level FlightAware Transoceanic
06:24PM 6.5546 -172.9188 224° Southwest 482 555 32,000  Level FlightAware Transoceanic
06:24PM 6.5833 -172.9000 224° Southwest 485 558 32,000  Level Oakland Oceanic (ODAPS)
06:25PM 6.4572 -173.0127 224° Southwest 482 555 32,000  Level FlightAware Transoceanic
06:26PM 6.3598 -173.1066 224° Southwest 482 555 32,000  Level FlightAware Transoceanic
06:27PM 6.2623 -173.2004 224° Southwest 482 555 32,000  Level FlightAware Transoceanic
06:28PM 6.1648 -173.2942 224° Southwest 482 555 32,000  Level FlightAware Transoceanic
06:29PM 6.0673 -173.3879 224° Southwest 482 555 32,000  Level FlightAware Transoceanic
06:30PM 5.9919 -173.4673 224° Southwest 485 558 32,000  Level FlightAware Transoceanic
06:31PM 5.8933 -173.5617 224° Southwest 485 558 32,000  Level FlightAware Transoceanic
06:32PM 5.7947 -173.6561 224° Southwest 485 558 32,000  Level FlightAware Transoceanic
06:33PM 5.6960 -173.7504 224° Southwest 485 558 32,000  Level FlightAware Transoceanic
06:34PM 5.5973 -173.8448 224° Southwest 485 558 32,000  Level FlightAware Transoceanic
06:35PM 5.4986 -173.9391 224° Southwest 485 558 32,000  Level FlightAware Transoceanic
06:36PM 5.3999 -174.0333 224° Southwest 485 558 32,000  Level FlightAware Transoceanic
06:37PM 5.3012 -174.1275 224° Southwest 485 558 32,000  Level FlightAware Transoceanic
06:38PM 5.2025 -174.2218 224° Southwest 485 558 32,000  Level FlightAware Transoceanic
06:38PM 5.2167 -174.2167 223° Southwest 483 556 32,000  Level Oakland Oceanic (ODAPS)
06:39PM 5.1037 -174.3159 224° Southwest 485 558 32,000  Level FlightAware Transoceanic
06:40PM 5.0050 -174.4101 224° Southwest 485 558 32,000  Level FlightAware Transoceanic
06:40PM 4.9667 -174.4500 223° Southwest 485 558 32,000  Level Oakland Oceanic (ODAPS)
06:41PM 4.9062 -174.5042 224° Southwest 485 558 32,000  Level FlightAware Transoceanic
06:42PM 4.8074 -174.5983 223° Southwest 485 558 32,000  Level FlightAware Transoceanic
06:43PM 4.7086 -174.6923 223° Southwest 485 558 32,000  Level FlightAware Transoceanic
06:44PM 4.6169 -174.7838 223° Southwest 483 556 32,000  Level FlightAware Transoceanic
06:44PM 4.6000 -174.8000 223° Southwest 491 565 32,000  Level Oakland Oceanic (ODAPS)
06:45PM 4.5169 -174.8782 223° Southwest 483 556 32,000  Level FlightAware Transoceanic
06:46PM 4.4169 -174.9726 223° Southwest 483 556 32,000  Level FlightAware Transoceanic
06:47PM 4.3334 -175.0503 223° Southwest 485 558 32,000  Level FlightAware Transoceanic
06:48PM 4.2279 -175.1502 223° Southwest 485 558 32,000  Level FlightAware Transoceanic
06:49PM 4.1223 -175.2501 223° Southwest 485 558 32,000  Level FlightAware Transoceanic
06:50PM 4.0167 -175.3500 224° Southwest 491 565 32,000  Level FlightAware Transoceanic
06:50PM 4.0167 -175.3500 224° Southwest 491 565 32,000  Level Oakland Oceanic (ODAPS)
06:51PM 3.9188 -175.4433 224° Southwest 491 565 32,000  Level FlightAware Transoceanic
06:51PM 3.8833 -175.4833 224° Southwest 491 565 32,000  Level Oakland Oceanic (ODAPS)
06:52PM 3.8210 -175.5366 224° Southwest 491 565 32,000  Level FlightAware Transoceanic
06:52PM 3.8333 -175.5333 224° Southwest 491 565 32,000  Level Oakland Oceanic (ODAPS)
06:53PM 3.7231 -175.6299 224° Southwest 491 565 32,000  Level FlightAware Transoceanic
06:54PM 3.6252 -175.7231 224° Southwest 491 565 32,000  Level FlightAware Transoceanic
06:55PM 3.5273 -175.8164 224° Southwest 491 565 32,000  Level FlightAware Transoceanic
06:56PM 3.4294 -175.9096 224° Southwest 491 565 32,000  Level FlightAware Transoceanic
06:57PM 3.3315 -176.0028 224° Southwest 491 565 32,000  Level FlightAware Transoceanic
06:58PM 3.2444 -176.0931 223° Southwest 491 565 32,000  Level FlightAware Transoceanic
06:59PM 3.1463 -176.1864 223° Southwest 491 565 32,000  Level FlightAware Transoceanic
07:00PM 3.0481 -176.2796 223° Southwest 491 565 32,000  Level FlightAware Transoceanic
07:01PM 2.9499 -176.3728 223° Southwest 491 565 32,000  Level FlightAware Transoceanic
07:02PM 2.8517 -176.4659 223° Southwest 491 565 32,000  Level FlightAware Transoceanic
07:03PM 2.7534 -176.5591 223° Southwest 491 565 32,000  Level FlightAware Transoceanic
07:04PM 2.6552 -176.6523 223° Southwest 491 565 32,000  Level FlightAware Transoceanic
07:05PM 2.5570 -176.7454 223° Southwest 491 565 32,000  Level FlightAware Transoceanic
07:06PM 2.4588 -176.8385 223° Southwest 491 565 32,000  Level FlightAware Transoceanic
07:07PM 2.3605 -176.9316 223° Southwest 491 565 32,000  Level FlightAware Transoceanic
07:08PM 2.2623 -177.0247 223° Southwest 491 565 32,000  Level FlightAware Transoceanic
07:09PM 2.1640 -177.1178 223° Southwest 491 565 32,000  Level FlightAware Transoceanic
07:10PM 2.0658 -177.2108 223° Southwest 491 565 32,000  Level FlightAware Transoceanic
07:11PM 1.9675 -177.3039 223° Southwest 491 565 32,000  Level FlightAware Transoceanic
07:12PM 1.8692 -177.3970 223° Southwest 491 565 32,000  Level FlightAware Transoceanic
07:13PM 1.7710 -177.4900 223° Southwest 491 565 32,000  Level FlightAware Transoceanic
07:14PM 1.6727 -177.5830 223° Southwest 491 565 32,000  Level FlightAware Transoceanic
07:15PM 1.5744 -177.6760 223° Southwest 491 565 32,000  Level FlightAware Transoceanic
07:16PM 1.4761 -177.7690 223° Southwest 491 565 32,000  Level FlightAware Transoceanic
07:17PM 1.3778 -177.8620 223° Southwest 491 565 32,000  Level FlightAware Transoceanic
07:18PM 1.2795 -177.9550 223° Southwest 491 565 32,000  Level FlightAware Transoceanic
07:19PM 1.1812 -178.0480 223° Southwest 491 565 32,000  Level FlightAware Transoceanic
07:19PM 1.1500 -178.0833 223° Southwest 485 558 32,000  Level Oakland Oceanic (ODAPS)
07:20PM 1.0829 -178.1410 223° Southwest 491 565 32,000  Level FlightAware Transoceanic
07:21PM 0.9846 -178.2340 223° Southwest 491 565 32,000  Level FlightAware Transoceanic
07:22PM 0.8863 -178.3269 223° Southwest 491 565 32,000  Level FlightAware Transoceanic
07:23PM 0.7880 -178.4199 223° Southwest 491 565 32,000  Level FlightAware Transoceanic
07:24PM 0.6897 -178.5128 223° Southwest 491 565 32,000  Level FlightAware Transoceanic
07:25PM 0.6417 -178.5626 223° Southwest 485 558 32,000  Level FlightAware Transoceanic
07:26PM 0.5400 -178.6584 223° Southwest 485 558 32,000  Level FlightAware Transoceanic
07:27PM 0.4384 -178.7542 223° Southwest 485 558 32,000  Level FlightAware Transoceanic
07:28PM 0.3367 -178.8501 223° Southwest 485 558 32,000  Level FlightAware Transoceanic
07:29PM 0.2350 -178.9459 223° Southwest 485 558 32,000  Level FlightAware Transoceanic
07:30PM 0.1333 -179.0417 223° Southwest 485 558 32,000  Level FlightAware Transoceanic
07:31PM 0.0317 -179.1375 223° Southwest 485 558 32,000  Level FlightAware Transoceanic
07:32PM -0.0700 -179.2334 223° Southwest 485 558 32,000  Level FlightAware Transoceanic
07:33PM -0.1717 -179.3292 223° Southwest 485 558 32,000  Level FlightAware Transoceanic
07:33PM -0.2000 -179.3667 223° Southwest 483 556 32,000  Level Oakland Oceanic (ODAPS)
07:34PM -0.2733 -179.4250 223° Southwest 485 558 32,000  Level FlightAware Transoceanic
07:35PM -0.3750 -179.5208 223° Southwest 485 558 32,000  Level FlightAware Transoceanic
07:36PM -0.4767 -179.6167 223° Southwest 485 558 32,000  Level FlightAware Transoceanic
07:37PM -0.5783 -179.7125 223° Southwest 485 558 32,000  Level FlightAware Transoceanic
07:38PM -0.6800 -179.8083 223° Southwest 485 558 32,000  Level FlightAware Transoceanic
07:39PM -0.7857 -179.9095 223° Southwest 483 556 32,000  Level FlightAware Transoceanic
07:40PM -0.8833 -180.0000 219° Southwest 483 556 32,000  Level FlightAware Transoceanic
07:41PM -0.9887 179.9141 219° Southwest 483 556 32,000  Level FlightAware Transoceanic
07:42PM -1.0941 179.8282 219° Southwest 483 556 32,000  Level FlightAware Transoceanic
07:43PM -1.1995 179.7423 219° Southwest 483 556 32,000  Level FlightAware Transoceanic
07:44PM -1.3048 179.6564 219° Southwest 483 556 32,000  Level FlightAware Transoceanic
07:45PM -1.4102 179.5704 219° Southwest 483 556 32,000  Level FlightAware Transoceanic
07:46PM -1.5156 179.4845 219° Southwest 483 556 32,000  Level FlightAware Transoceanic
07:47PM -1.6209 179.3986 219° Southwest 483 556 32,000  Level FlightAware Transoceanic
07:48PM -1.7263 179.3126 219° Southwest 483 556 32,000  Level FlightAware Transoceanic
07:49PM -1.8317 179.2267 219° Southwest 483 556 32,000  Level FlightAware Transoceanic
07:50PM -1.9370 179.1407 219° Southwest 483 556 32,000  Level FlightAware Transoceanic
07:51PM -2.0424 179.0547 219° Southwest 483 556 32,000  Level FlightAware Transoceanic
07:52PM -2.1477 178.9687 219° Southwest 483 556 32,000  Level FlightAware Transoceanic
07:53PM -2.2531 178.8827 219° Southwest 483 556 32,000  Level FlightAware Transoceanic
07:54PM -2.3584 178.7967 219° Southwest 483 556 32,000  Level FlightAware Transoceanic
07:55PM -2.4637 178.7107 219° Southwest 483 556 32,000  Level FlightAware Transoceanic
07:56PM -2.5690 178.6246 219° Southwest 483 556 32,000  Level FlightAware Transoceanic
07:57PM -2.6744 178.5386 219° Southwest 483 556 32,000  Level FlightAware Transoceanic
07:58PM -2.7797 178.4525 219° Southwest 483 556 32,000  Level FlightAware Transoceanic
07:59PM -2.8850 178.3664 219° Southwest 483 556 32,000  Level FlightAware Transoceanic
08:00PM -2.9903 178.2803 219° Southwest 483 556 32,000  Level FlightAware Transoceanic
08:01PM -3.0956 178.1942 219° Southwest 483 556 32,000  Level FlightAware Transoceanic
08:02PM -3.2009 178.1080 219° Southwest 483 556 32,000  Level FlightAware Transoceanic
08:03PM -3.3061 178.0219 219° Southwest 483 556 32,000  Level FlightAware Transoceanic
08:04PM -3.4114 177.9357 219° Southwest 483 556 32,000  Level FlightAware Transoceanic
08:05PM -3.5167 177.8495 219° Southwest 483 556 32,000  Level FlightAware Transoceanic
08:06PM -3.6219 177.7633 219° Southwest 483 556 32,000  Level FlightAware Transoceanic
08:07PM -3.7272 177.6771 219° Southwest 483 556 32,000  Level FlightAware Transoceanic
08:08PM -3.8324 177.5908 219° Southwest 483 556 32,000  Level FlightAware Transoceanic
08:09PM -3.9376 177.5046 219° Southwest 483 556 32,000  Level FlightAware Transoceanic
08:10PM -4.0429 177.4183 219° Southwest 483 556 32,000  Level FlightAware Transoceanic
08:11PM -4.1481 177.3320 219° Southwest 483 556 32,000  Level FlightAware Transoceanic
08:12PM -4.2533 177.2456 219° Southwest 483 556 32,000  Level FlightAware Transoceanic
08:13PM -4.3585 177.1593 219° Southwest 483 556 32,000  Level FlightAware Transoceanic
08:14PM -4.4636 177.0729 219° Southwest 483 556 32,000  Level FlightAware Transoceanic
08:15PM -4.5688 176.9865 219° Southwest 483 556 32,000  Level FlightAware Transoceanic
08:16PM -4.6740 176.9000 219° Southwest 483 556 32,000  Level FlightAware Transoceanic
08:17PM -4.7791 176.8136 219° Southwest 483 556 32,000  Level FlightAware Transoceanic
08:18PM -4.8843 176.7271 219° Southwest 483 556 32,000  Level FlightAware Transoceanic
08:19PM -4.9894 176.6405 219° Southwest 483 556 32,000  Level FlightAware Transoceanic
08:20PM -5.0945 176.5540 219° Southwest 483 556 32,000  Level FlightAware Transoceanic
08:21PM -5.1996 176.4674 219° Southwest 483 556 32,000  Level FlightAware Transoceanic
08:22PM -5.3047 176.3808 219° Southwest 483 556 32,000  Level FlightAware Transoceanic
08:23PM -5.4098 176.2942 219° Southwest 483 556 32,000  Level FlightAware Transoceanic
08:24PM -5.5149 176.2075 219° Southwest 483 556 32,000  Level FlightAware Transoceanic
08:25PM -5.6199 176.1208 219° Southwest 483 556 32,000  Level FlightAware Transoceanic
08:26PM -5.7250 176.0341 219° Southwest 483 556 32,000  Level FlightAware Transoceanic
08:27PM -5.8300 175.9474 219° Southwest 483 556 32,000  Level FlightAware Transoceanic
08:28PM -5.9350 175.8606 219° Southwest 483 556 32,000  Level FlightAware Transoceanic
08:29PM -6.0400 175.7737 219° Southwest 483 556 32,000  Level FlightAware Transoceanic
08:30PM -6.1450 175.6869 219° Southwest 483 556 32,000  Level FlightAware Transoceanic
08:31PM -6.2318 175.5851 229° Southwest  Level FlightAware Approximate
08:32PM -6.3185 175.4832 229° Southwest  Level FlightAware Approximate
08:33PM -6.3320 175.4976 221° Southwest  Level FlightAware Approximate
08:34PM -6.4329 175.4099 221° Southwest  Level FlightAware Approximate
08:35PM -6.5338 175.3221 221° Southwest  Level FlightAware Approximate
08:36PM -6.6346 175.2343 221° Southwest  Level FlightAware Approximate
08:37PM -6.7355 175.1465 221° Southwest  Level FlightAware Approximate
08:38PM -6.8363 175.0587 221° Southwest  Level FlightAware Approximate
08:39PM -6.9371 174.9708 221° Southwest  Level FlightAware Approximate
08:40PM -7.0379 174.8828 221° Southwest  Level FlightAware Approximate
08:41PM -7.1387 174.7949 221° Southwest  Level FlightAware Approximate
08:42PM -7.2394 174.7069 221° Southwest  Level FlightAware Approximate
08:43PM -7.3402 174.6188 221° Southwest  Level FlightAware Approximate
08:44PM -7.4409 174.5307 221° Southwest  Level FlightAware Approximate
08:45PM -7.5416 174.4426 221° Southwest  Level FlightAware Approximate
08:46PM -7.6423 174.3544 221° Southwest  Level FlightAware Approximate
08:47PM -7.7430 174.2662 221° Southwest  Level FlightAware Approximate
08:48PM -7.8436 174.1780 221° Southwest  Level FlightAware Approximate
08:49PM -7.9443 174.0897 221° Southwest  Level FlightAware Approximate
08:50PM -8.0449 174.0013 221° Southwest  Level FlightAware Approximate
08:51PM -8.1455 173.9130 221° Southwest  Level FlightAware Approximate
08:52PM -8.2461 173.8246 221° Southwest  Level FlightAware Approximate
08:53PM -8.3466 173.7361 221° Southwest  Level FlightAware Approximate
08:54PM -8.4472 173.6476 221° Southwest  Level FlightAware Approximate
08:55PM -8.5477 173.5590 221° Southwest  Level FlightAware Approximate
08:56PM -8.6482 173.4704 221° Southwest  Level FlightAware Approximate
08:57PM -8.7487 173.3817 221° Southwest  Level FlightAware Approximate
08:58PM -8.8491 173.2930 221° Southwest  Level FlightAware Approximate
08:59PM -8.9496 173.2043 221° Southwest  Level FlightAware Approximate
09:00PM -9.0500 173.1155 221° Southwest  Level FlightAware Approximate
09:01PM -9.1504 173.0267 221° Southwest  Level FlightAware Approximate
09:02PM -9.2507 172.9377 221° Southwest  Level FlightAware Approximate
09:03PM -9.3511 172.8488 221° Southwest  Level FlightAware Approximate
09:04PM -9.4514 172.7598 221° Southwest  Level FlightAware Approximate
09:05PM -9.5517 172.6707 221° Southwest  Level FlightAware Approximate
09:06PM -9.6520 172.5816 221° Southwest  Level FlightAware Approximate
09:07PM -9.7523 172.4925 221° Southwest  Level FlightAware Approximate
09:08PM -9.8525 172.4032 221° Southwest  Level FlightAware Approximate
09:09PM -9.9526 172.3138 221° Southwest  Level FlightAware Approximate
09:10PM -10.0527 172.2244 221° Southwest  Level FlightAware Approximate
09:11PM -10.1528 172.1349 221° Southwest  Level FlightAware Approximate
09:12PM -10.2528 172.0454 221° Southwest  Level FlightAware Approximate
09:13PM -10.3528 171.9558 221° Southwest  Level FlightAware Approximate
09:14PM -10.4528 171.8661 221° Southwest  Level FlightAware Approximate
09:15PM -10.5528 171.7764 221° Southwest  Level FlightAware Approximate
09:16PM -10.6527 171.6866 221° Southwest  Level FlightAware Approximate
09:17PM -10.7527 171.5968 221° Southwest  Level FlightAware Approximate
09:18PM -10.8526 171.5069 221° Southwest  Level FlightAware Approximate
09:19PM -10.9524 171.4169 221° Southwest  Level FlightAware Approximate
09:20PM -11.0523 171.3269 221° Southwest  Level FlightAware Approximate
09:21PM -11.1521 171.2369 222° Southwest  Level FlightAware Approximate
09:22PM -11.2519 171.1467 222° Southwest  Level FlightAware Approximate
09:23PM -11.3516 171.0565 222° Southwest  Level FlightAware Approximate
09:24PM -11.4514 170.9663 222° Southwest  Level FlightAware Approximate
09:25PM -11.5511 170.8759 222° Southwest  Level FlightAware Approximate
09:26PM -11.6508 170.7856 222° Southwest  Level FlightAware Approximate
09:27PM -11.7504 170.6951 222° Southwest  Level FlightAware Approximate
09:28PM -11.8500 170.6046 222° Southwest  Level FlightAware Approximate
09:29PM -11.9496 170.5140 222° Southwest  Level FlightAware Approximate
09:30PM -12.0492 170.4234 222° Southwest  Level FlightAware Approximate
09:31PM -12.1487 170.3326 222° Southwest  Level FlightAware Approximate
09:32PM -12.2483 170.2418 222° Southwest  Level FlightAware Approximate
09:33PM -12.3477 170.1510 222° Southwest  Level FlightAware Approximate
09:34PM -12.4472 170.0601 222° Southwest  Level FlightAware Approximate
09:35PM -12.5466 169.9691 222° Southwest  Level FlightAware Approximate
09:36PM -12.6460 169.8780 222° Southwest  Level FlightAware Approximate
09:37PM -12.7453 169.7869 222° Southwest  Level FlightAware Approximate
09:38PM -12.8447 169.6956 222° Southwest  Level FlightAware Approximate
09:39PM -12.9439 169.6044 222° Southwest  Level FlightAware Approximate
09:40PM -13.0432 169.5130 222° Southwest  Level FlightAware Approximate
09:41PM -13.1424 169.4216 222° Southwest  Level FlightAware Approximate
09:42PM -13.2416 169.3301 222° Southwest  Level FlightAware Approximate
09:43PM -13.3408 169.2385 222° Southwest  Level FlightAware Approximate
09:44PM -13.4399 169.1469 222° Southwest  Level FlightAware Approximate
09:45PM -13.5390 169.0551 222° Southwest  Level FlightAware Approximate
09:46PM -13.6381 168.9633 222° Southwest  Level FlightAware Approximate
09:47PM -13.7371 168.8715 222° Southwest  Level FlightAware Approximate
09:48PM -13.8361 168.7795 222° Southwest  Level FlightAware Approximate
09:49PM -13.9351 168.6875 222° Southwest  Level FlightAware Approximate
09:50PM -14.0340 168.5954 222° Southwest  Level FlightAware Approximate
09:51PM -14.1329 168.5032 222° Southwest  Level FlightAware Approximate
09:52PM -14.2318 168.4109 222° Southwest  Level FlightAware Approximate
09:53PM -14.3306 168.3186 222° Southwest  Level FlightAware Approximate
09:54PM -14.4294 168.2261 222° Southwest  Level FlightAware Approximate
09:55PM -14.5281 168.1336 222° Southwest  Level FlightAware Approximate
09:56PM -14.6268 168.0410 222° Southwest  Level FlightAware Approximate
09:57PM -14.7255 167.9483 222° Southwest  Level FlightAware Approximate
09:58PM -14.8242 167.8555 222° Southwest  Level FlightAware Approximate
09:59PM -14.9228 167.7627 222° Southwest  Level FlightAware Approximate
10:00PM -15.0213 167.6698 222° Southwest  Level FlightAware Approximate
10:01PM -15.1199 167.5767 222° Southwest  Level FlightAware Approximate
10:02PM -15.2183 167.4836 222° Southwest  Level FlightAware Approximate
10:03PM -15.3168 167.3904 222° Southwest  Level FlightAware Approximate
10:04PM -15.4152 167.2971 222° Southwest  Level FlightAware Approximate
10:05PM -15.5153 167.2061 214° Southwest  Level FlightAware Approximate
10:06PM -15.6263 167.1294 214° Southwest  Level FlightAware Approximate
10:07PM -15.7373 167.0526 214° Southwest  Level FlightAware Approximate
10:08PM -15.8482 166.9757 214° Southwest  Level FlightAware Approximate
10:09PM -15.9591 166.8987 214° Southwest  Level FlightAware Approximate
10:10PM -16.0699 166.8217 214° Southwest  Level FlightAware Approximate
10:11PM -16.1808 166.7446 214° Southwest  Level FlightAware Approximate
10:12PM -16.2916 166.6673 214° Southwest  Level FlightAware Approximate
10:13PM -16.4024 166.5900 214° Southwest  Level FlightAware Approximate
10:14PM -16.5131 166.5126 214° Southwest  Level FlightAware Approximate
10:15PM -16.6239 166.4352 214° Southwest  Level FlightAware Approximate
10:16PM -16.7346 166.3576 214° Southwest  Level FlightAware Approximate
10:17PM -16.8452 166.2799 214° Southwest  Level FlightAware Approximate
10:18PM -16.9559 166.2022 214° Southwest  Level FlightAware Approximate
10:19PM -17.0665 166.1243 214° Southwest  Level FlightAware Approximate
10:20PM -17.1771 166.0464 214° Southwest  Level FlightAware Approximate
10:21PM -17.2876 165.9684 214° Southwest  Level FlightAware Approximate
10:22PM -17.3981 165.8902 214° Southwest  Level FlightAware Approximate
10:23PM -17.5086 165.8120 214° Southwest  Level FlightAware Approximate
10:24PM -17.6191 165.7337 214° Southwest  Level FlightAware Approximate
10:25PM -17.7295 165.6553 214° Southwest  Level FlightAware Approximate
10:26PM -17.8399 165.5768 214° Southwest  Level FlightAware Approximate
10:27PM -17.9503 165.4982 214° Southwest  Level FlightAware Approximate
10:28PM -18.0606 165.4195 214° Southwest  Level FlightAware Approximate
10:29PM -18.1709 165.3407 214° Southwest  Level FlightAware Approximate
10:30PM -18.2812 165.2618 214° Southwest  Level FlightAware Approximate
10:31PM -18.3914 165.1828 214° Southwest  Level FlightAware Approximate
10:32PM -18.5016 165.1037 214° Southwest  Level FlightAware Approximate
10:33PM -18.6118 165.0245 214° Southwest  Level FlightAware Approximate
10:34PM -18.7219 164.9452 214° Southwest  Level FlightAware Approximate
10:35PM -18.8321 164.8658 214° Southwest  Level FlightAware Approximate
10:36PM -18.9421 164.7863 214° Southwest  Level FlightAware Approximate
10:37PM -19.0522 164.7066 214° Southwest  Level FlightAware Approximate
10:38PM -19.1622 164.6269 214° Southwest  Level FlightAware Approximate
10:39PM -19.2721 164.5471 214° Southwest  Level FlightAware Approximate
10:40PM -19.3821 164.4671 214° Southwest  Level FlightAware Approximate
10:41PM -19.4920 164.3871 214° Southwest  Level FlightAware Approximate
10:42PM -19.6018 164.3069 214° Southwest  Level FlightAware Approximate
10:43PM -19.7117 164.2267 215° Southwest  Level FlightAware Approximate
10:44PM -19.8214 164.1463 215° Southwest  Level FlightAware Approximate
10:45PM -19.9312 164.0658 215° Southwest  Level FlightAware Approximate
10:46PM -20.0409 163.9852 215° Southwest  Level FlightAware Approximate
10:47PM -20.1506 163.9045 215° Southwest  Level FlightAware Approximate
10:48PM -20.2603 163.8237 215° Southwest  Level FlightAware Approximate
10:49PM -20.3699 163.7427 215° Southwest  Level FlightAware Approximate
10:50PM -20.4794 163.6617 215° Southwest  Level FlightAware Approximate
10:51PM -20.5890 163.5805 215° Southwest  Level FlightAware Approximate
10:52PM -20.6985 163.4992 215° Southwest  Level FlightAware Approximate
10:53PM -20.8079 163.4178 215° Southwest  Level FlightAware Approximate
10:54PM -20.9174 163.3363 215° Southwest  Level FlightAware Approximate
10:55PM -21.0267 163.2547 215° Southwest  Level FlightAware Approximate
10:56PM -21.1361 163.1729 215° Southwest  Level FlightAware Approximate
10:57PM -21.2454 163.0910 215° Southwest  Level FlightAware Approximate
10:58PM -21.3547 163.0090 215° Southwest  Level FlightAware Approximate
10:59PM -21.4623 162.9245 216° Southwest  Level FlightAware Approximate
11:00PM -21.5696 162.8395 216° Southwest  Level FlightAware Approximate
11:01PM -21.6769 162.7544 216° Southwest  Level FlightAware Approximate
11:02PM -21.7842 162.6691 216° Southwest  Level FlightAware Approximate
11:03PM -21.8914 162.5838 216° Southwest  Level FlightAware Approximate
11:04PM -21.9986 162.4982 216° Southwest  Level FlightAware Approximate
11:05PM -22.1057 162.4126 217° Southwest  Level FlightAware Approximate
11:06PM -22.2128 162.3269 217° Southwest  Level FlightAware Approximate
11:07PM -22.3199 162.2410 217° Southwest  Level FlightAware Approximate
11:08PM -22.4268 162.1550 217° Southwest  Level FlightAware Approximate
11:09PM -22.5338 162.0688 217° Southwest  Level FlightAware Approximate
11:10PM -22.6407 161.9825 217° Southwest  Level FlightAware Approximate
11:11PM -22.7476 161.8961 217° Southwest  Level FlightAware Approximate
11:12PM -22.8544 161.8096 217° Southwest  Level FlightAware Approximate
11:13PM -22.9611 161.7229 217° Southwest  Level FlightAware Approximate
11:14PM -23.0679 161.6360 217° Southwest  Level FlightAware Approximate
11:15PM -23.1745 161.5491 217° Southwest  Level FlightAware Approximate
11:16PM -23.2812 161.4620 217° Southwest  Level FlightAware Approximate
11:17PM -23.3878 161.3747 217° Southwest  Level FlightAware Approximate
11:18PM -23.4943 161.2873 217° Southwest  Level FlightAware Approximate
11:19PM -23.6008 161.1998 217° Southwest  Level FlightAware Approximate
11:20PM -23.7072 161.1121 217° Southwest  Level FlightAware Approximate
11:21PM -23.8136 161.0243 217° Southwest  Level FlightAware Approximate
11:22PM -23.9199 160.9364 217° Southwest  Level FlightAware Approximate
11:23PM -24.0262 160.8483 217° Southwest  Level FlightAware Approximate
11:24PM -24.1324 160.7600 217° Southwest  Level FlightAware Approximate
11:25PM -24.2386 160.6716 217° Southwest  Level FlightAware Approximate
11:26PM -24.3447 160.5831 217° Southwest  Level FlightAware Approximate
11:27PM -24.4508 160.4944 217° Southwest  Level FlightAware Approximate
11:28PM -24.5568 160.4056 217° Southwest  Level FlightAware Approximate
11:29PM -24.6685 160.3257 212° Southwest  Level FlightAware Approximate
11:30PM -24.7821 160.2488 212° Southwest  Level FlightAware Approximate
11:31PM -24.8956 160.1718 212° Southwest  Level FlightAware Approximate
11:32PM -25.0091 160.0945 212° Southwest  Level FlightAware Approximate
11:33PM -25.1225 160.0172 212° Southwest  Level FlightAware Approximate
11:34PM -25.2359 159.9397 212° Southwest  Level FlightAware Approximate
11:35PM -25.3492 159.8621 212° Southwest  Level FlightAware Approximate
11:36PM -25.4625 159.7843 212° Southwest  Level FlightAware Approximate
11:37PM -25.5758 159.7064 212° Southwest  Level FlightAware Approximate
11:38PM -25.6890 159.6283 212° Southwest  Level FlightAware Approximate
11:39PM -25.8022 159.5501 212° Southwest  Level FlightAware Approximate
11:40PM -25.9154 159.4717 212° Southwest  Level FlightAware Approximate
11:41PM -26.0285 159.3932 212° Southwest  Level FlightAware Approximate
11:42PM -26.1415 159.3145 212° Southwest  Level FlightAware Approximate
11:43PM -26.2546 159.2357 212° Southwest  Level FlightAware Approximate
11:44PM -26.3675 159.1567 212° Southwest  Level FlightAware Approximate
11:45PM -26.4805 159.0775 212° Southwest  Level FlightAware Approximate
11:46PM -26.5933 158.9982 212° Southwest  Level FlightAware Approximate
11:47PM -26.7062 158.9188 212° Southwest  Level FlightAware Approximate
11:48PM -26.8190 158.8392 212° Southwest  Level FlightAware Approximate
11:49PM -26.9317 158.7594 212° Southwest  Level FlightAware Approximate
11:50PM -27.0445 158.6795 212° Southwest  Level FlightAware Approximate
11:51PM -27.1571 158.5994 212° Southwest  Level FlightAware Approximate
11:52PM -27.2697 158.5192 212° Southwest  Level FlightAware Approximate
11:53PM -27.3823 158.4388 212° Southwest  Level FlightAware Approximate
11:54PM -27.4948 158.3582 212° Southwest  Level FlightAware Approximate
11:55PM -27.6073 158.2775 212° Southwest  Level FlightAware Approximate
11:56PM -27.7197 158.1965 212° Southwest  Level FlightAware Approximate
11:57PM -27.8321 158.1155 213° Southwest  Level FlightAware Approximate
11:58PM -27.9445 158.0342 213° Southwest  Level FlightAware Approximate
11:59PM -28.0568 157.9528 213° Southwest  Level FlightAware Approximate
12:00AM -28.1690 157.8712 213° Southwest  Level FlightAware Approximate
12:01AM -28.2812 157.7895 213° Southwest  Level FlightAware Approximate
12:02AM -28.3934 157.7076 213° Southwest  Level FlightAware Approximate
12:03AM -28.5055 157.6255 213° Southwest  Level FlightAware Approximate
12:04AM -28.6175 157.5432 213° Southwest  Level FlightAware Approximate
12:05AM -28.7295 157.4608 213° Southwest  Level FlightAware Approximate
12:05AM -27.7810 158.1678 213° Southwest 585 673 36,000  Level Aus ATC (RADAR)
12:06AM -27.8426 158.1239 212° Southwest 481 554 36,000  Level Aus ATC (RADAR)
12:07AM -27.9413 158.0519 213° Southwest 433 498 36,000  Level Aus ATC (RADAR)
12:08AM -28.0374 157.9802 213° Southwest 420 483 36,000  Level Aus ATC (RADAR)
12:08AM -28.0954 157.9385 212° Southwest 422 486 36,000  Level Aus ATC (RADAR)
12:09AM -28.1209 157.9201 212° Southwest 424 488 36,000 60 Level Aus ATC (RADAR)
12:09AM -28.1872 157.8722 212° Southwest 424 488 36,100  Climbing Aus ATC (RADAR)
12:10AM -28.2777 157.8054 213° Southwest 424 488 36,000 -120 Descending Aus ATC (RADAR)
12:11AM -28.3363 157.7628 213° Southwest 426 490 36,000  Level Aus ATC (RADAR)
12:12AM -28.4375 157.6889 213° Southwest 431 496 36,000  Level Aus ATC (RADAR)
12:13AM -28.5309 157.6209 213° Southwest 434 499 36,100 60 Climbing Aus ATC (RADAR)
12:13AM -28.5905 157.5773 213° Southwest 436 502 36,100  Level Aus ATC (RADAR)
12:13AM -28.6161 157.5586 213° Southwest 436 502 36,100  Level Aus ATC (RADAR)
12:14AM -28.6750 157.5156 213° Southwest 434 499 36,100 -120 Level Aus ATC (RADAR)
12:15AM -28.7669 157.4478 213° Southwest 431 496 36,000 -120 Descending Aus ATC (RADAR)
12:16AM -28.8244 157.4054 213° Southwest 426 490 36,000  Level Aus ATC (RADAR)
12:17AM -28.9230 157.3330 213° Southwest 423 487 36,000  Level Aus ATC (RADAR)
12:17AM -28.9879 157.2844 213° Southwest 421 484 36,000  Level Aus ATC (RADAR)
12:19AM -29.1462 157.1677 213° Southwest 429 494 36,100  Climbing Aus ATC (RADAR)
12:19AM -29.1716 157.1490 213° Southwest 430 495 36,100 -120 Level Aus ATC (RADAR)
12:20AM -29.2370 157.1004 213° Southwest 426 490 36,000  Descending Aus ATC (RADAR)
12:21AM -29.3357 157.0269 213° Southwest 424 488 36,100 60 Climbing Aus ATC (RADAR)
12:21AM -29.3761 156.9967 213° Southwest 422 486 36,100  Level Aus ATC (RADAR)
12:25AM -29.7750 156.6970 213° Southwest 438 504 36,100  Level Aus ATC (RADAR)
12:27AM -29.9402 156.5790 212° Southwest 442 509 36,100  Level Aus ATC (RADAR)
12:29AM -30.1506 156.4545 207° Southwest 445 512 36,100  Level Aus ATC (RADAR)
12:30AM -30.3158 156.3556 207° Southwest 447 514 36,200  Climbing Aus ATC (RADAR)
12:32AM -30.4892 156.2521 207° Southwest 445 512 36,200  Level Aus ATC (RADAR)
12:33AM -30.6538 156.1540 207° Southwest 443 510 36,200  Level Aus ATC (RADAR)
12:35AM -30.8211 156.0531 207° Southwest 450 518 36,300  Climbing Aus ATC (RADAR)
12:35AM -30.8488 156.0363 207° Southwest 450 518 36,300 -60 Level Aus ATC (RADAR)
12:38AM -31.1465 155.8550 208° Southwest 452 520 36,200 -60 Descending Aus ATC (RADAR)
12:39AM -31.2927 155.7661 207° Southwest 447 514 36,200  Level Aus ATC (RADAR)
12:39AM -31.3383 155.7382 208° Southwest 446 513 36,200  Level Aus ATC (RADAR)
12:41AM -31.5114 155.6324 208° Southwest 445 512 36,200  Level Aus ATC (RADAR)
12:44AM -31.7686 155.4734 208° Southwest 451 519 36,300 -60 Climbing Aus ATC (RADAR)
12:45AM -31.9510 155.3610 208° Southwest 455 524 36,000 -180 Descending FlightAware
12:46AM -32.0140 155.3220 208° Southwest 454 522 36,100 60 Climbing FlightAware
12:46AM -32.0970 155.2710 207° Southwest 455 524 36,100  Level FlightAware
12:47AM -32.1790 155.2190 208° Southwest 448 516 36,100 60 Level FlightAware
12:47AM -32.2407 155.1805 208° Southwest 446 513 36,200 -180 Climbing Aus ATC (RADAR)
12:48AM -32.2610 155.1680 208° Southwest 441 507 36,000 -240 Descending FlightAware
12:48AM -32.3200 155.1310 208° Southwest 436 502 36,000  Level FlightAware
12:49AM -32.4090 155.0750 208° Southwest 430 495 36,000  Level FlightAware
12:50AM -32.4900 155.0240 208° Southwest 425 489 36,000 180 Level FlightAware
12:50AM -32.5399 154.9918 208° Southwest 423 487 36,200  Climbing Aus ATC (RADAR)
12:51AM -32.5590 154.9800 208° Southwest 424 488 36,000 -240 Descending FlightAware
12:51AM -32.6290 154.9360 208° Southwest 427 491 36,000 120 Level FlightAware
12:52AM -32.7057 154.8870 208° Southwest 429 494 36,200  Climbing Aus ATC (RADAR)
12:52AM -32.7060 154.8870 208° Southwest 432 497 36,000 -180 Descending FlightAware
12:53AM -32.7740 154.8450 207° Southwest 434 499 36,100 60 Climbing FlightAware
12:53AM -32.8320 154.8080 208° Southwest 432 497 36,100 -120 Level FlightAware
12:54AM -32.9170 154.7540 208° Southwest 429 494 36,000 60 Descending FlightAware
12:55AM -32.9960 154.7029 208° Southwest 428 493 36,200  Climbing Aus ATC (RADAR)
12:55AM -33.0090 154.6950 208° Southwest 428 493 36,000 -240 Descending FlightAware
12:56AM -33.0680 154.6580 208° Southwest 428 493 36,000 240 Level FlightAware
12:56AM -33.1212 154.5831 208° Southwest 415 478 36,300  Climbing Aus ATC (RADAR)
12:56AM -33.1140 154.5930 208° Southwest 398 458 36,000  Descending FlightAware
12:56AM -33.1371 154.5568 208° Southwest 403 464 36,300  Climbing Aus ATC (RADAR)
12:57AM -33.1690 154.5080 208° Southwest 399 459 36,000 -300 Descending FlightAware
12:57AM -33.2070 154.4500 232° Southwest 401 461 36,000  Level FlightAware
12:58AM -33.2620 154.3650 232° Southwest 407 468 36,000 60 Level FlightAware
12:59AM -33.3130 154.2840 233° Southwest 410 472 36,100 300 Climbing FlightAware
12:59AM -33.3484 154.2291 233° Southwest 411 473 36,400  Climbing Aus ATC (RADAR)
01:00AM -33.3530 154.2220 233° Southwest 414 476 36,100 -300 Descending FlightAware
01:00AM -33.4110 154.1310 233° Southwest 416 479 36,100  Level FlightAware
01:01AM -33.4510 154.0710 233° Southwest 413 475 36,100 480 Level FlightAware
01:01AM -33.4361 154.0919 233° Southwest 418 481 36,400 -120 Climbing Aus ATC (RADAR)
01:02AM -33.5090 153.9780 233° Southwest 409 471 36,000 -300 Descending FlightAware
01:02AM -33.5500 153.9150 232° Southwest 409 471 36,000  Level FlightAware
01:03AM -33.5940 153.8450 233° Southwest 411 473 36,000 300 Level FlightAware
01:03AM -33.5969 153.8390 233° Southwest 410 472 36,300  Climbing Aus ATC (RADAR)
01:04AM -33.6490 153.7570 233° Southwest 415 478 36,000 -180 Descending FlightAware
01:05AM -33.7020 153.6740 232° Southwest 416 479 36,100 240 Climbing FlightAware
01:05AM -33.7544 153.5899 232° Southwest 406 467 36,400  Climbing Aus ATC (RADAR)
01:05AM -33.7530 153.5930 232° Southwest 418 481 36,100 -540 Descending FlightAware
01:06AM -33.8000 153.5180 233° Southwest 420 483 36,000 -120 Descending FlightAware
01:07AM -33.8520 153.4340 233° Southwest 421 484 36,000  Level FlightAware
01:07AM -33.8890 153.3740 233° Southwest 421 484 36,000  Level FlightAware
01:08AM -33.9460 153.2390 243° Southwest 415 478 36,000  Level FlightAware
01:09AM -33.9560 153.1450 263° West 416 479 36,000 -120 Level FlightAware
01:10AM -33.9760 153.0480 256° West 417 480 35,900 -1,140 Descending FlightAware
01:10AM -33.9960 152.9570 255° West 416 479 34,500 -2,700 Descending FlightAware
01:11AM -34.0160 152.8670 255° West 437 503 32,100 -3,120 Descending FlightAware
01:11AM -34.0286 152.8111 255° West 430 495 31,400 -3,180 Descending Aus ATC (RADAR)
01:12AM -34.0410 152.7590 255° West 438 504 30,000 -2,760 Descending FlightAware
01:13AM -34.0610 152.6590 256° West 438 504 28,200 -2,400 Descending FlightAware
01:13AM -34.0760 152.5910 255° West 433 498 27,000 -2,520 Descending FlightAware
01:13AM -34.0790 152.5280 267° West 439 505 25,900 -2,700 Descending FlightAware
01:14AM -34.0690 152.4320 277° West 433 498 24,100 -2,880 Descending FlightAware
01:15AM -34.0590 152.3200 276° West 425 489 21,900 -2,820 Descending FlightAware
01:15AM -34.0520 152.2520 277° West 420 483 20,600 -2,700 Descending FlightAware
01:16AM -34.0472 152.1955 277° West 413 475 19,700 -2,880 Descending Aus ATC (RADAR)
01:16AM -34.0439 152.1609 277° West 411 473 19,000 -2,880 Descending Aus ATC (RADAR)
01:16AM -34.0400 152.1270 277° West 412 474 18,000 -3,000 Descending FlightAware
01:17AM -34.0280 152.0010 277° West 404 465 15,200 -2,940 Descending FlightAware
01:18AM -34.0190 151.9160 277° West 398 458 13,400 -2,820 Descending FlightAware
01:19AM -34.0100 151.8240 277° West 373 429 11,500 -1,920 Descending FlightAware
01:19AM -34.0020 151.7380 276° West 318 366 10,700 -960 Descending FlightAware
01:20AM -33.9960 151.6740 276° West 290 334 10,200 -720 Descending FlightAware
01:20AM -33.9913 151.6359 276° West 283 326 10,000 -1,440 Descending Aus ATC (RADAR)
01:20AM -33.9900 151.6260 276° West 292 336 9,500 -1,860 Descending FlightAware
01:21AM -33.9860 151.5870 277° West 287 330 8,900 -1,200 Descending FlightAware
01:21AM -33.9810 151.5440 278° West 274 315 8,400 -960 Descending FlightAware
01:22AM -33.9780 151.5170 278° West 261 300 8,200 -600 Descending FlightAware
01:22AM -33.9758 151.4834 278° West 260 299 8,100 -1,200 Descending Aus ATC (RADAR)
01:22AM -33.9760 151.4820 278° West 262 302 7,700 -2,160 Descending FlightAware
01:23AM -33.9710 151.4400 278° West 269 310 6,800 -1,740 Descending FlightAware
01:23AM -33.9700 151.4280 276° West 269 310 6,700 -1,500 Descending FlightAware
01:23AM -33.9630 151.3760 279° West 266 306 5,800 -960 Descending FlightAware
01:24AM -33.9590 151.3360 277° West 262 302 5,700 -120 Descending FlightAware
01:24AM -33.9380 151.2960 302° West 276 318 5,700 300 Level FlightAware
01:25AM -33.9053 151.2831 302° West 271 312 6,000  Climbing Aus ATC (RADAR)
01:25AM -33.9100 151.2850 302° West 263 303 5,700 -600 Descending FlightAware
01:25AM -33.8810 151.2740 343° North 235 270 5,700 -780 Level FlightAware
01:26AM -33.8300 151.2570 345° North 249 287 4,800 -1,140 Descending FlightAware
01:26AM -33.7990 151.2460 344° North 248 285 4,400 -660 Descending FlightAware
01:27AM -33.7720 151.2370 345° North 248 285 4,200 -600 Descending FlightAware
01:27AM -33.7430 151.2210 335° Northwest 242 278 3,900 -600 Descending FlightAware
01:27AM -33.7370 151.2080 299° West 238 274 3,800 -720 Descending FlightAware
01:28AM -33.7352 151.1594 299° West 224 258 3,400 -1,380 Descending Aus ATC (RADAR)
01:28AM -33.7370 151.1520 299° West 223 257 2,800 -1,920 Descending FlightAware
01:28AM -33.7420 151.1400 243° Southwest 213 245 2,700 -240 Descending FlightAware
01:29AM -33.7580 151.1300 207° Southwest 176 203 2,700  Level FlightAware
01:29AM -33.7770 151.1320 175° South 163 188 2,700 -180 Level FlightAware
01:29AM -33.7860 151.1340 170° South 161 185 2,600 -840 Descending FlightAware
01:30AM -33.8110 151.1410 167° South 165 190 2,100 -1,020 Descending FlightAware
01:30AM -33.8300 151.1460 168° South 164 189 1,700 -900 Descending FlightAware
01:31AM -33.8510 151.1510 169° South 147 169 1,300 -780 Descending FlightAware
01:31AM -33.8660 151.1550 168° South 133 153 1,000 -780 Descending FlightAware
01:32AM -33.8860 151.1600 168° South 135 155 600 -720 Descending FlightAware
01:32AM -33.8940 151.1620 168° South 133 153 500 -360 Descending FlightAware
01:32AM -33.9131 151.1674 168° South 139 160 400 -300 Descending Aus ATC (RADAR)
01:33AM -33.9220 151.1700 168° South 132 152 -1,440 Descending FlightAware
01:33AM -33.9390 151.1740 169° South 100 115  Level FlightAware
01:33AM -33.9460 151.1760 167° South 33 38  Level FlightAware